Time;durP1;ratioP1;P1;durP2;ratioP2;P2;SDS_P1;SDS_P2;PMS_P1;PMS_P2;Temp;Humidity;BMP_temperature;BMP_pressure;BME280_temperature;BME280_humidity;BME280_pressure;Samples;Min_cycle;Max_cycle;Signal;HPM_P1;HPM_P2
2022/10/01 00:01:13;;;;;;;;;;;12.10;99.90;;;;;;8426046;28;19928;-79
2022/10/01 00:05:15;;;;;;;;;;;12.00;99.90;;;;;;8452221;27;19931;-78
2022/10/01 00:09:16;;;;;;;;;;;12.00;99.90;;;;;;8436160;27;19946;-78
2022/10/01 00:13:19;;;;;;;;;;;12.00;99.90;;;;;;8458432;27;19924;-78
2022/10/01 00:17:20;;;;;;;;;;;12.00;99.90;;;;;;8453367;27;19942;-78
2022/10/01 00:21:23;;;;;;;;;;;12.00;99.90;;;;;;8434519;28;20346;-78
2022/10/01 00:25:25;;;;;;;;;;;12.00;99.90;;;;;;8457436;28;19928;-78
2022/10/01 00:29:26;;;;;;;;;;;12.00;99.90;;;;;;8451759;27;19928;-78
2022/10/01 00:33:28;;;;;;;;;;;12.00;99.90;;;;;;8433502;28;19926;-79
2022/10/01 00:37:29;;;;;;;;;;;12.00;99.90;;;;;;8447989;27;19954;-78
2022/10/01 00:41:32;;;;;;;;;;;12.00;99.90;;;;;;8455260;27;20289;-78
2022/10/01 00:45:35;;;;;;;;;;;12.00;99.90;;;;;;8446501;28;19920;-78
2022/10/01 00:49:37;;;;;;;;;;;11.90;99.90;;;;;;8467365;27;19920;-78
2022/10/01 00:53:40;;;;;;;;;;;11.90;99.90;;;;;;8460313;27;19923;-77
2022/10/01 00:57:42;;;;;;;;;;;11.80;99.90;;;;;;8457921;27;20002;-77
2022/10/01 01:21:59;;;;;;;;;;;11.70;99.90;;;;;;8446182;28;20011;-77
2022/10/01 01:26:15;;;;;;;;;;;11.70;99.90;;;;;;8454123;27;20353;-78
2022/10/01 01:30:17;;;;;;;;;;;11.70;99.90;;;;;;8446196;27;19924;-78
2022/10/01 01:39:24;;;;;;;;;;;11.70;99.90;;;;;;8420451;28;19922;-77
2022/10/01 01:43:28;;;;;;;;;;;11.60;99.90;;;;;;8413821;28;19930;-78
2022/10/01 01:47:31;;;;;;;;;;;11.60;99.90;;;;;;8400999;28;20026;-77
2022/10/01 01:51:39;;;;;;;;;;;11.60;99.90;;;;;;8404713;28;20347;-78
2022/10/01 02:06:24;;;;;;;;;;;11.50;99.90;;;;;;8427436;28;19974;-77
2022/10/01 02:10:44;;;;;;;;;;;11.50;99.90;;;;;;8427123;28;19924;-77
2022/10/01 02:14:55;;;;;;;;;;;11.50;99.90;;;;;;8434483;28;20274;-77
2022/10/01 02:18:57;;;;;;;;;;;11.50;99.90;;;;;;8417976;28;19920;-78
2022/10/01 02:23:02;;;;;;;;;;;11.50;99.90;;;;;;8418118;28;19924;-78
2022/10/01 02:27:09;;;;;;;;;;;11.50;99.90;;;;;;8428442;28;19924;-77
2022/10/01 02:31:12;;;;;;;;;;;11.60;99.90;;;;;;8422931;28;19920;-77
2022/10/01 02:35:15;;;;;;;;;;;11.60;99.90;;;;;;8443092;28;19920;-78
2022/10/01 02:39:17;;;;;;;;;;;11.60;99.90;;;;;;8426722;28;19924;-78
2022/10/01 02:43:25;;;;;;;;;;;11.60;99.90;;;;;;8419903;28;19919;-78
2022/10/01 02:47:36;;;;;;;;;;;11.60;99.90;;;;;;8434976;28;19934;-79
2022/10/01 02:51:38;;;;;;;;;;;11.60;99.90;;;;;;8418190;28;19930;-78
2022/10/01 02:55:40;;;;;;;;;;;11.60;99.90;;;;;;8406263;28;20381;-78
2022/10/01 02:59:41;;;;;;;;;;;11.70;99.90;;;;;;8444164;28;19920;-78
2022/10/01 03:03:43;;;;;;;;;;;11.70;99.90;;;;;;8428296;28;19942;-78
2022/10/01 03:07:45;;;;;;;;;;;11.70;99.90;;;;;;8423166;28;19924;-78
2022/10/01 03:11:47;;;;;;;;;;;11.70;99.90;;;;;;8421856;28;19924;-77
2022/10/01 03:15:48;;;;;;;;;;;11.70;99.90;;;;;;8443912;28;19930;-79
2022/10/01 03:19:50;;;;;;;;;;;11.70;99.90;;;;;;8415382;28;20363;-79
2022/10/01 03:23:52;;;;;;;;;;;11.80;99.90;;;;;;8414286;28;19928;-77
2022/10/01 03:27:53;;;;;;;;;;;11.80;99.90;;;;;;8416425;28;19956;-78
2022/10/01 03:31:55;;;;;;;;;;;11.80;99.90;;;;;;8424140;28;20359;-79
2022/10/01 03:35:57;;;;;;;;;;;11.80;99.90;;;;;;8425136;28;19930;-78
2022/10/01 03:39:58;;;;;;;;;;;11.90;99.90;;;;;;8442949;28;20014;-78
2022/10/01 03:44:00;;;;;;;;;;;11.90;99.90;;;;;;8424614;28;19950;-79
2022/10/01 03:48:02;;;;;;;;;;;11.90;99.90;;;;;;8456884;27;19930;-78
2022/10/01 03:52:05;;;;;;;;;;;12.00;99.90;;;;;;8423082;28;19950;-78
2022/10/01 03:56:06;;;;;;;;;;;12.00;99.90;;;;;;8425494;28;19928;-77
2022/10/01 04:15:20;;;;;;;;;;;12.20;99.90;;;;;;8436228;28;19937;-78
2022/10/01 04:19:22;;;;;;;;;;;12.20;99.90;;;;;;8415467;28;19994;-78
2022/10/01 04:23:24;;;;;;;;;;;12.20;99.90;;;;;;8426625;28;19983;-77
2022/10/01 04:27:25;;;;;;;;;;;12.30;99.90;;;;;;8416954;28;20322;-77
2022/10/01 04:31:33;;;;;;;;;;;12.30;99.90;;;;;;8417906;28;19930;-77
2022/10/01 04:35:35;;;;;;;;;;;12.40;99.90;;;;;;8408689;28;19950;-77
2022/10/01 04:39:37;;;;;;;;;;;12.40;99.90;;;;;;8426067;28;19928;-77
2022/10/01 04:43:39;;;;;;;;;;;12.50;99.90;;;;;;8435147;27;19920;-78
2022/10/01 04:47:47;;;;;;;;;;;12.50;99.90;;;;;;8431818;28;19920;-76
2022/10/01 04:51:49;;;;;;;;;;;12.60;99.90;;;;;;8443998;28;19927;-77
2022/10/01 04:55:51;;;;;;;;;;;12.60;99.90;;;;;;8437275;28;19920;-78
2022/10/01 04:59:52;;;;;;;;;;;12.60;99.90;;;;;;8454816;28;19967;-77
2022/10/01 05:03:54;;;;;;;;;;;12.70;99.90;;;;;;8437357;28;19931;-77
2022/10/01 05:07:55;;;;;;;;;;;12.70;99.90;;;;;;8444187;28;19934;-77
2022/10/01 05:11:57;;;;;;;;;;;12.70;99.90;;;;;;8434612;28;19955;-77
2022/10/01 05:15:59;;;;;;;;;;;12.70;99.90;;;;;;8438619;28;20011;-77
2022/10/01 05:20:02;;;;;;;;;;;12.80;99.90;;;;;;8426391;28;19920;-77
2022/10/01 05:24:04;;;;;;;;;;;12.80;99.90;;;;;;8439005;28;20054;-76
2022/10/01 05:28:06;;;;;;;;;;;12.80;99.90;;;;;;8432750;28;19926;-76
2022/10/01 05:32:09;;;;;;;;;;;12.80;99.90;;;;;;8415676;28;19931;-77
2022/10/01 05:36:10;;;;;;;8.27;5.55;;;12.80;99.90;;;;;;8428610;28;19920;-77
2022/10/01 05:40:12;;;;;;;;;;;12.90;99.90;;;;;;8425409;28;20471;-77
2022/10/01 05:44:13;;;;;;;;;;;12.90;99.90;;;;;;8427089;28;19928;-77
2022/10/01 05:48:15;;;;;;;;;;;12.90;99.90;;;;;;8439988;27;20298;-77
2022/10/01 05:52:17;;;;;;;;;;;12.90;99.90;;;;;;8414291;28;20360;-77
2022/10/01 05:56:18;;;;;;;;;;;12.90;99.90;;;;;;8425793;28;20372;-77
2022/10/01 06:00:21;;;;;;;;;;;12.90;99.90;;;;;;8437540;28;19928;-76
2022/10/01 06:04:23;;;;;;;;;;;12.90;99.90;;;;;;8407397;28;20037;-77
2022/10/01 06:08:26;;;;;;;;;;;12.90;99.90;;;;;;8445589;27;21111;-77
2022/10/01 06:27:15;;;;;;;;;;;12.90;99.90;;;;;;8448507;28;20357;-77
2022/10/01 06:31:17;;;;;;;;;;;13.00;99.90;;;;;;8432346;28;19930;-77
2022/10/01 06:35:19;;;;;;;;;;;13.00;99.90;;;;;;8438708;28;19920;-77
2022/10/01 06:39:21;;;;;;;;;;;13.00;99.90;;;;;;8431308;28;19919;-77
2022/10/01 06:43:24;;;;;;;;;;;13.10;99.90;;;;;;8448298;28;19923;-77
2022/10/01 06:47:25;;;;;;;;;;;13.20;99.90;;;;;;8432676;28;19926;-77
2022/10/01 06:55:48;;;;;;;;;;;13.40;99.90;;;;;;8447613;28;19930;-77
2022/10/01 06:59:51;;;;;;;;;;;13.40;99.90;;;;;;8419315;28;19950;-77
2022/10/01 07:03:53;;;;;;;;;;;13.50;99.90;;;;;;8415485;28;19978;-77
2022/10/01 07:07:54;;;;;;;;;;;13.60;99.90;;;;;;8427854;28;19935;-77
2022/10/01 07:11:56;;;;;;;;;;;13.70;99.90;;;;;;8439709;28;20010;-77
2022/10/01 07:15:57;;;;;;;;;;;13.80;99.90;;;;;;8437118;28;19923;-76
2022/10/01 07:30:06;;;;;;;;;;;14.20;99.90;;;;;;8438238;28;19914;-77
2022/10/01 07:34:07;;;;;;;;;;;14.20;99.90;;;;;;8432733;28;19944;-77
2022/10/01 07:38:09;;;;;;;;;;;14.20;99.90;;;;;;8425155;28;19920;-77
2022/10/01 07:42:11;;;;;;;;;;;14.20;99.90;;;;;;8421310;28;19919;-77
2022/10/01 07:46:12;;;;;;;;;;;14.20;99.90;;;;;;8435444;28;19924;-77
2022/10/01 07:50:14;;;;;;;;;;;14.20;99.90;;;;;;8449987;28;19935;-77
2022/10/01 07:54:17;;;;;;;;;;;14.30;99.90;;;;;;8431465;28;19920;-77
2022/10/01 07:58:22;;;;;;;;;;;14.30;99.90;;;;;;8459084;28;19923;-77
2022/10/01 08:02:24;;;;;;;;;;;14.50;99.90;;;;;;8449093;28;19971;-77
2022/10/01 08:06:25;;;;;;;;;;;14.50;99.90;;;;;;8428349;28;19926;-77
2022/10/01 08:10:27;;;;;;;;;;;14.60;99.90;;;;;;8430951;28;19993;-77
2022/10/01 08:14:29;;;;;;;;;;;14.70;99.90;;;;;;8458543;28;19920;-77
2022/10/01 08:18:31;;;;;;;;;;;14.70;99.90;;;;;;8415170;28;19985;-77
2022/10/01 08:22:33;;;;;;;;;;;14.70;99.90;;;;;;8452474;28;19920;-77
2022/10/01 08:26:38;;;;;;;;;;;14.70;99.90;;;;;;8415310;28;19970;-76
2022/10/01 08:30:40;;;;;;;;;;;14.60;99.90;;;;;;8429705;28;19935;-77
2022/10/01 08:34:41;;;;;;;;;;;14.50;99.90;;;;;;8416546;28;19928;-78
2022/10/01 08:38:44;;;;;;;;;;;14.50;99.90;;;;;;8436078;28;20014;-78
2022/10/01 08:42:48;;;;;;;;;;;14.40;99.90;;;;;;8428293;28;19966;-77
2022/10/01 08:46:51;;;;;;;;;;;14.40;99.90;;;;;;8442642;28;19920;-78
2022/10/01 08:51:04;;;;;;;;;;;14.50;99.90;;;;;;8447029;28;19927;-78
2022/10/01 09:05:45;;;;;;;;;;;14.40;99.90;;;;;;8444864;28;19958;-77
2022/10/01 09:09:50;;;;;;;;;;;14.40;99.90;;;;;;8440385;28;19926;-77
2022/10/01 09:14:02;;;;;;;;;;;14.50;99.90;;;;;;8445571;28;19926;-77
2022/10/01 09:18:28;;;;;;;;;;;14.70;99.90;;;;;;8409493;28;20022;-78
2022/10/01 09:22:36;;;;;;;;;;;14.90;99.90;;;;;;8436792;28;19963;-77
2022/10/01 09:26:40;;;;;;;;;;;15.20;99.90;;;;;;8459147;28;19926;-78
2022/10/01 09:30:46;;;;;;;;;;;15.30;99.90;;;;;;8454748;28;19931;-77
2022/10/01 09:34:47;;;;;;;;;;;15.50;99.90;;;;;;8463599;27;19924;-79
2022/10/01 09:38:55;;;;;;;;;;;15.70;99.90;;;;;;8435555;28;19923;-78
2022/10/01 09:42:57;;;;;;;;;;;15.90;99.90;;;;;;8431054;28;20424;-78
2022/10/01 09:46:58;;;;;;;;;;;16.00;99.90;;;;;;8432633;28;19955;-78
2022/10/01 09:51:07;;;;;;;;;;;15.90;99.90;;;;;;8419374;28;20019;-78
2022/10/01 09:55:12;;;;;;;;;;;15.80;99.90;;;;;;8432352;28;19924;-77
2022/10/01 09:59:17;;;;;;;;;;;15.70;99.90;;;;;;8417506;28;19923;-78
2022/10/01 10:03:23;;;;;;;;;;;15.80;99.90;;;;;;8442181;28;19923;-78
2022/10/01 10:07:24;;;;;;;;;;;15.90;99.90;;;;;;8421258;28;19920;-77
2022/10/01 10:11:28;;;;;;;;;;;15.90;99.90;;;;;;8448354;28;19924;-77
2022/10/01 10:15:31;;;;;;;;;;;15.90;99.90;;;;;;8431408;28;20332;-78
2022/10/01 10:19:34;;;;;;;;;;;15.90;99.90;;;;;;8399924;28;20307;-77
2022/10/01 10:23:45;;;;;;;;;;;16.00;99.90;;;;;;8382105;28;19966;-78
2022/10/01 10:27:54;;;;;;;;;;;16.10;99.90;;;;;;8395967;28;19928;-77
2022/10/01 10:31:57;;;;;;;;;;;16.30;99.90;;;;;;8395281;28;19970;-77
2022/10/01 10:36:03;;;;;;;;;;;16.50;99.90;;;;;;8381571;28;20055;-78
2022/10/01 10:40:07;;;;;;;;;;;16.50;99.90;;;;;;8394335;28;19924;-78
2022/10/01 10:44:12;;;;;;;;;;;16.60;99.90;;;;;;8397160;28;20339;-78
2022/10/01 10:48:16;;;;;;;;;;;16.80;99.90;;;;;;8395349;28;19928;-77
2022/10/01 10:52:27;;;;;;;;;;;17.00;99.90;;;;;;8407866;28;19927;-78
2022/10/01 10:56:29;;;;;;;;;;;17.10;99.90;;;;;;8403078;28;19928;-77
2022/10/01 11:00:35;;;;;;;;;;;17.20;99.90;;;;;;8404720;28;20006;-78
2022/10/01 11:04:39;;;;;;;;;;;17.10;99.90;;;;;;8408343;28;19930;-78
2022/10/01 11:08:41;;;;;;;;;;;16.90;99.90;;;;;;8398197;28;20021;-79
2022/10/01 11:12:49;;;;;;;;;;;16.70;99.90;;;;;;8381846;28;20387;-79
2022/10/01 11:16:50;;;;;;;;;;;16.60;99.90;;;;;;8399472;28;19920;-78
2022/10/01 11:21:11;;;;;;;;;;;16.80;99.90;;;;;;8397239;28;20019;-78
2022/10/01 11:25:27;;;;;;;;;;;17.00;99.90;;;;;;8394043;28;19930;-78
2022/10/01 11:29:37;;;;;;;;;;;17.10;99.90;;;;;;8396921;28;20580;-77
2022/10/01 11:33:58;;;;;;;;;;;17.30;99.90;;;;;;8400153;28;19982;-77
2022/10/01 11:38:05;;;;;;;;;;;17.50;99.90;;;;;;8393586;28;19928;-79
2022/10/01 11:42:30;;;;;;;;;;;17.70;99.90;;;;;;8411208;27;20284;-77
2022/10/01 11:46:36;;;;;;;;;;;17.80;99.90;;;;;;8391874;28;19930;-78
2022/10/01 11:50:44;;;;;;;;;;;18.00;99.90;;;;;;8395552;28;20367;-79
2022/10/01 11:58:49;;;;;;;;;;;18.10;99.90;;;;;;8404641;28;19924;-78
2022/10/01 11:59:23;;;;;;;;;;;18.20;99.90;;;;;;8404566;28;20444;-78
2022/10/01 12:03:28;;;;;;;;;;;17.80;99.90;;;;;;8411729;28;19963;-79
2022/10/01 12:07:37;;;;;;;;;;;17.40;99.90;;;;;;8410070;28;19938;-76
2022/10/01 12:11:45;;;;;;;;;;;17.10;99.90;;;;;;8402546;28;19966;-78
2022/10/01 12:16:02;;;;;;;;;;;17.00;99.90;;;;;;8383470;28;20441;-78
2022/10/01 12:20:11;;;;;;;;;;;16.90;99.90;;;;;;8411529;28;19924;-78
2022/10/01 12:24:15;;;;;;;;;;;16.90;99.90;;;;;;8406173;28;19924;-78
2022/10/01 12:28:33;;;;;;;;;;;17.00;99.90;;;;;;8406501;28;19920;-78
2022/10/01 12:32:42;;;;;;;;;;;17.30;99.90;;;;;;8387039;28;19926;-78
2022/10/01 12:36:52;;;;;;;;;;;17.40;99.90;;;;;;8400973;28;20050;-78
2022/10/01 12:40:58;;;;;;;;;;;17.40;99.90;;;;;;8406241;28;19935;-78
2022/10/01 12:45:02;;;;;;;;;;;17.20;99.90;;;;;;8399391;28;19924;-78
2022/10/01 12:49:12;;;;;;;;;;;17.00;99.90;;;;;;8405372;28;20338;-78
2022/10/01 12:53:22;;;;;;;;;;;17.00;99.90;;;;;;8398119;28;20440;-78
2022/10/01 12:57:53;;;;;;;;;;;17.00;99.90;;;;;;8402870;28;19947;-78
2022/10/01 13:02:00;;;;;;;;;;;17.20;99.90;;;;;;8394661;28;19924;-78
2022/10/01 13:06:11;;;;;;;;;;;17.40;99.90;;;;;;8401468;28;20368;-78
2022/10/01 13:10:16;;;;;;;;;;;17.50;99.90;;;;;;8403186;28;19924;-79
2022/10/01 13:14:18;;;;;;;;;;;17.50;99.90;;;;;;8403690;28;19920;-78
2022/10/01 13:18:20;;;;;;;;;;;17.40;99.90;;;;;;8403737;28;19931;-78
2022/10/01 13:22:25;;;;;;;;;;;17.30;99.90;;;;;;8387321;28;19930;-79
2022/10/01 13:26:29;;;;;;;;;;;17.20;99.90;;;;;;8401281;28;20104;-78
2022/10/01 13:30:33;;;;;;;;;;;17.20;99.90;;;;;;8403660;28;19926;-78
2022/10/01 13:34:39;;;;;;;;;;;17.30;99.90;;;;;;8390659;28;19920;-77
2022/10/01 13:38:42;;;;;;;;;;;17.40;99.90;;;;;;8396074;28;19982;-78
2022/10/01 13:42:45;;;;;;;;;;;17.60;99.90;;;;;;8401021;28;19940;-78
2022/10/01 13:46:52;;;;;;;;;;;17.90;99.90;;;;;;8407172;28;20639;-77
2022/10/01 13:51:02;;;;;;;;;;;18.20;99.90;;;;;;8392838;28;20516;-80
2022/10/01 13:55:04;;;;;;;;;;;18.30;99.90;;;;;;8399497;28;20303;-78
2022/10/01 13:59:24;;;;;;;;;;;18.40;99.90;;;;;;8394821;28;20490;-78
2022/10/01 14:03:44;;;;;;;;;;;18.70;99.90;;;;;;8398810;28;20005;-78
2022/10/01 14:07:49;;;;;;;;;;;18.90;99.90;;;;;;8398905;28;19971;-79
2022/10/01 14:16:20;;;;;;;;;;;19.10;99.90;;;;;;8395703;28;20391;-78
2022/10/01 14:20:24;;;;;;;;;;;19.00;99.90;;;;;;8399282;28;19978;-79
2022/10/01 14:24:38;;;;;;;;;;;18.90;99.90;;;;;;8401761;28;19928;-78
2022/10/01 14:28:42;;;;;;;;;;;18.90;99.90;;;;;;8410566;28;19924;-78
2022/10/01 14:32:47;;;;;;;;;;;18.60;99.90;;;;;;8411707;27;19924;-78
2022/10/01 14:36:50;;;;;;;;;;;18.20;99.90;;;;;;8394990;28;20010;-77
2022/10/01 14:40:52;;;;;;;;;;;17.90;99.90;;;;;;8393134;28;20287;-78
2022/10/01 14:44:54;;;;;;;;;;;17.80;99.90;;;;;;8391851;28;19919;-78
2022/10/01 14:48:57;;;;;;;;;;;17.70;99.90;;;;;;8389802;28;19920;-79
2022/10/01 14:52:59;;;;;;;;;;;17.60;99.90;;;;;;8390964;28;20411;-78
2022/10/01 14:57:00;;;;;;;;;;;17.50;99.90;;;;;;8397322;28;20424;-78
2022/10/01 15:01:05;;;;;;;;;;;17.40;99.90;;;;;;8397762;28;19927;-79
2022/10/01 15:05:13;;;;;;;;;;;17.40;99.90;;;;;;8394637;28;19931;-78
2022/10/01 15:09:19;;;;;;;;;;;17.30;99.90;;;;;;8399806;28;20023;-76
2022/10/01 15:13:25;;;;;;;;;;;17.40;99.90;;;;;;8391937;28;19924;-78
2022/10/01 15:17:26;;;;;;;;;;;17.50;99.90;;;;;;8398414;28;20401;-78
2022/10/01 15:21:34;;;;;;;;;;;17.70;99.90;;;;;;8407944;28;20715;-78
2022/10/01 15:25:36;;;;;;;;;;;17.70;99.90;;;;;;8406143;28;19930;-78
2022/10/01 15:29:39;;;;;;;;;;;17.70;99.90;;;;;;8410656;28;19929;-78
2022/10/01 15:33:41;;;;;;;;;;;17.70;99.90;;;;;;8412866;28;19928;-78
2022/10/01 15:37:44;;;;;;;;;;;17.60;99.90;;;;;;8412399;28;20439;-78
2022/10/01 15:41:51;;;;;;;;;;;17.60;99.90;;;;;;8403912;28;20252;-78
2022/10/01 15:46:11;;;;;;;;;;;17.60;99.90;;;;;;8407698;28;19959;-78
2022/10/01 15:50:21;;;;;;;;;;;17.60;99.90;;;;;;8407689;28;19920;-77
2022/10/01 15:54:23;;;;;;;;;;;17.60;99.90;;;;;;8395626;28;19934;-77
2022/10/01 15:58:26;;;;;;;;;;;17.50;99.90;;;;;;8419166;28;19927;-77
2022/10/01 16:02:29;;;;;;;;;;;17.40;99.90;;;;;;8404476;28;19927;-77
2022/10/01 16:06:36;;;;;;;;;;;17.30;99.90;;;;;;8402782;28;19924;-77
2022/10/01 16:10:39;;;;;;;;;;;17.10;99.90;;;;;;8385837;28;19934;-77
2022/10/01 16:14:42;;;;;;;;;;;17.10;99.90;;;;;;8405495;28;20020;-78
2022/10/01 16:18:51;;;;;;;;;;;17.00;99.90;;;;;;8410187;28;19985;-78
2022/10/01 16:23:12;;;;;;;;;;;17.00;99.90;;;;;;8395987;28;20286;-77
2022/10/01 16:27:16;;;;;;;;;;;17.00;99.90;;;;;;8383723;28;20354;-77
2022/10/01 16:31:18;;;;;;;;;;;16.90;99.90;;;;;;8392556;28;19920;-78
2022/10/01 16:35:21;;;;;;;;;;;16.90;99.90;;;;;;8402193;28;19931;-78
2022/10/01 16:39:23;;;;;;;;;;;16.90;99.90;;;;;;8392235;28;19923;-77
2022/10/01 16:43:25;;;;;;;;;;;16.90;99.90;;;;;;8405501;28;20353;-77
2022/10/01 16:47:27;;;;;;;;;;;16.80;99.90;;;;;;8410280;28;19926;-78
2022/10/01 16:51:30;;;;;;;;;;;16.80;99.90;;;;;;8404529;28;19933;-78
2022/10/01 16:55:35;;;;;;;;;;;16.70;99.90;;;;;;8391933;28;19952;-78
2022/10/01 16:59:36;;;;;;;;;;;16.80;99.90;;;;;;8403868;28;19938;-78
2022/10/01 17:03:38;;;;;;;;;;;16.70;99.90;;;;;;8411850;27;19920;-78
2022/10/01 17:07:40;;;;;;;;;;;16.70;99.90;;;;;;8388565;28;19951;-78
2022/10/01 17:11:42;;;;;;;;;;;16.70;99.90;;;;;;8421048;27;19947;-78
2022/10/01 17:15:46;;;;;;;;;;;16.70;99.90;;;;;;8397088;28;19930;-78
2022/10/01 17:19:47;;;;;;;;;;;16.60;99.90;;;;;;8390639;28;20569;-78
2022/10/01 17:23:49;;;;;;;;;;;16.50;99.90;;;;;;8401319;28;19928;-78
2022/10/01 17:27:54;;;;;;;;;;;16.50;99.90;;;;;;8409627;27;19932;-78
2022/10/01 17:31:56;;;;;;;;;;;16.40;99.90;;;;;;8399967;28;19962;-78
2022/10/01 17:35:58;;;;;;;;;;;16.40;99.90;;;;;;8399710;28;20359;-78
2022/10/01 17:39:59;;;;;;;;;;;16.30;99.90;;;;;;8406733;28;19920;-79
2022/10/01 17:44:01;;;;;;;;;;;16.20;99.90;;;;;;8402508;28;20420;-78
2022/10/01 17:48:03;;;;;;;;;;;16.10;99.90;;;;;;8388867;28;19927;-78
2022/10/01 17:52:05;;;;;;;;;;;16.00;99.90;;;;;;8422630;28;19926;-79
2022/10/01 17:56:08;;;;;;;;;;;15.80;99.90;;;;;;8390668;28;20038;-78
2022/10/01 18:00:10;;;;;;;;;;;15.70;99.90;;;;;;8409445;28;19962;-78
2022/10/01 18:04:12;;;;;;;;;;;15.60;99.90;;;;;;8405437;28;19931;-78
2022/10/01 18:08:13;;;;;;;;;;;15.50;99.90;;;;;;8405763;28;19924;-79
2022/10/01 18:12:15;;;;;;;;;;;15.50;99.90;;;;;;8405334;28;19924;-79
2022/10/01 18:16:16;;;;;;;;;;;15.40;99.90;;;;;;8400787;28;20039;-78
2022/10/01 18:20:20;;;;;;;;;;;15.30;99.90;;;;;;8410443;28;19919;-78
2022/10/01 18:24:22;;;;;;;;;;;15.20;99.90;;;;;;8402978;28;19928;-78
2022/10/01 18:28:24;;;;;;;;;;;15.20;99.90;;;;;;8404039;28;19924;-78
2022/10/01 18:32:30;;;;;;;;;;;15.10;99.90;;;;;;8390851;28;19935;-78
2022/10/01 18:36:31;;;;;;;;;;;15.00;99.90;;;;;;8407112;28;19928;-78
2022/10/01 18:40:35;;;;;;;;;;;15.00;99.90;;;;;;8401515;28;20339;-79
2022/10/01 18:44:36;;;;;;;;;;;15.00;99.90;;;;;;8404408;28;20260;-78
2022/10/01 18:48:57;;;;;;;;;;;15.00;99.90;;;;;;8422445;27;19927;-78
2022/10/01 18:53:08;;;;;;;;;;;14.90;99.90;;;;;;8401568;28;20299;-77
2022/10/01 18:57:18;;;;;;;;;;;14.90;99.90;;;;;;8390936;28;19930;-78
2022/10/01 19:01:20;;;;;;;;;;;14.80;99.90;;;;;;8403197;28;20011;-78
2022/10/01 19:05:41;;;;;;;;;;;14.80;99.90;;;;;;8403681;28;19927;-77
2022/10/01 19:10:00;;;;;;;;;;;14.80;99.90;;;;;;8389416;28;19920;-78
2022/10/01 19:14:17;;;;;;;;;;;14.70;99.90;;;;;;8401622;28;19924;-79
2022/10/01 19:18:22;;;;;;;;;;;14.70;99.90;;;;;;8401991;28;19924;-78
2022/10/01 19:22:29;;;;;;;;;;;14.70;99.90;;;;;;8391430;28;19928;-78
2022/10/01 19:26:46;;;;;;;;;;;14.60;99.90;;;;;;8394652;28;19928;-78
2022/10/01 19:30:50;;;;;;;;;;;14.60;99.90;;;;;;8399956;28;20283;-78
2022/10/01 19:34:55;;;;;;;;;;;14.60;99.90;;;;;;8399057;28;19929;-77
2022/10/01 19:38:59;;;;;;;;;;;14.60;99.90;;;;;;8395028;28;19931;-79
2022/10/01 19:43:10;;;;;;;;;;;14.70;99.90;;;;;;8399003;28;19924;-78
2022/10/01 19:47:30;;;;;;;;;;;14.60;99.90;;;;;;8415042;28;21088;-78
2022/10/01 19:51:35;;;;;;;;;;;14.60;99.90;;;;;;8407944;28;19928;-78
2022/10/01 19:55:36;;;;;;;;;;;14.60;99.90;;;;;;8397407;28;19924;-78
2022/10/01 19:59:39;;;;;;;;;;;14.60;99.90;;;;;;8401922;28;19920;-78
2022/10/01 20:03:50;;;;;;;;;;;14.50;99.90;;;;;;8402822;28;19920;-78
2022/10/01 20:08:04;;;;;;;;;;;14.50;99.90;;;;;;8401424;28;20379;-78
2022/10/01 20:12:12;;;;;;;;;;;14.50;99.90;;;;;;8414021;28;19920;-78
2022/10/01 20:16:17;;;;;;;;;;;14.50;99.90;;;;;;8407112;28;19924;-77
2022/10/01 20:20:32;;;;;;;;;;;14.50;99.90;;;;;;8417088;27;19999;-79
2022/10/01 20:24:57;;;;;;;;;;;14.50;99.90;;;;;;8397465;28;19924;-78
2022/10/01 20:29:08;;;;;;;;;;;14.40;99.90;;;;;;8403828;28;19927;-78
2022/10/01 20:33:20;;;;;;;;;;;14.50;99.90;;;;;;8400659;28;19924;-78
2022/10/01 20:37:36;;;;;;;;;;;14.40;99.90;;;;;;8403346;28;20185;-78
2022/10/01 20:41:45;;;;;;;;;;;14.40;99.90;;;;;;8400130;28;19924;-78
2022/10/01 20:45:48;;;;;;;;;;;14.30;99.90;;;;;;8395989;28;19928;-78
2022/10/01 20:49:53;;;;;;;;;;;14.30;99.90;;;;;;8407181;28;19950;-78
2022/10/01 20:54:02;;;;;;;;;;;14.20;99.90;;;;;;8398841;28;19924;-78
2022/10/01 20:58:11;;;;;;;;;;;14.20;99.90;;;;;;8402831;28;20849;-78
2022/10/01 21:02:25;;;;;;;;;;;14.20;99.90;;;;;;8421130;28;19927;-77
2022/10/01 21:06:33;;;;;;;;;;;14.10;99.90;;;;;;8436499;28;19943;-78
2022/10/01 21:10:43;;;;;;;;;;;14.10;99.90;;;;;;8439263;28;19966;-77
2022/10/01 21:14:48;;;;;;;;;;;14.10;99.90;;;;;;8431012;28;20386;-77
2022/10/01 21:19:05;;;;;;;;;;;14.10;99.90;;;;;;8411613;28;20254;-78
2022/10/01 21:28:31;;;;;;;;;;;14.10;99.90;;;;;;8407159;28;19918;-77
2022/10/01 21:32:45;;;;;;;;;;;14.00;99.90;;;;;;8414893;28;20291;-78
2022/10/01 21:36:50;;;;;;;;;;;14.00;99.90;;;;;;8418309;28;19919;-77
2022/10/01 21:40:52;;;;;;;;;;;14.00;99.90;;;;;;8422102;28;20007;-77
2022/10/01 21:45:09;;;;;;;;;;;14.00;99.90;;;;;;8425797;28;19920;-76
2022/10/01 21:49:16;;;;;;;;;;;14.00;99.90;;;;;;8443749;28;19936;-77
2022/10/01 21:53:29;;;;;;;;;;;14.00;99.90;;;;;;8420984;28;19927;-77
2022/10/01 21:57:42;;;;;;;;;;;14.00;99.90;;;;;;8435411;28;20260;-77
2022/10/01 22:01:51;;;;;;;;;;;14.00;99.90;;;;;;8457435;27;20397;-77
2022/10/01 22:06:00;;;;;;;;;;;14.00;99.90;;;;;;8430889;28;19927;-78
2022/10/01 22:10:13;;;;;;;;;;;14.00;99.90;;;;;;8426825;28;19970;-78
2022/10/01 22:14:16;;;;;;;;;;;14.00;99.90;;;;;;8417788;28;20264;-77
2022/10/01 22:18:38;;;;;;;;;;;14.10;99.90;;;;;;8414775;28;19926;-79
2022/10/01 22:22:40;;;;;;;;;;;14.10;99.90;;;;;;8449398;27;20521;-77
2022/10/01 22:26:45;;;;;;;;;;;14.10;99.90;;;;;;8424236;28;19919;-78
2022/10/01 22:30:49;;;;;;;;;;;14.20;99.90;;;;;;8427536;28;20090;-78
2022/10/01 22:34:54;;;;;;;;;;;14.20;99.90;;;;;;8409716;28;19920;-78
2022/10/01 22:39:01;;;;;;;;;;;14.30;99.90;;;;;;8396208;28;19970;-78
2022/10/01 22:43:08;;;;;;;;;;;14.30;99.90;;;;;;8432324;28;19923;-78
2022/10/01 22:47:15;;;;;;;;;;;14.30;99.90;;;;;;8424791;28;19942;-78
2022/10/01 22:51:27;;;;;;;;;;;14.40;99.90;;;;;;8419559;28;20302;-78
2022/10/01 22:55:38;;;;;;;;;;;14.50;99.90;;;;;;8415759;28;19924;-77
2022/10/01 22:59:56;;;;;;;;;;;14.50;99.90;;;;;;8418735;28;21393;-78
2022/10/01 23:04:00;;;;;;;;;;;14.50;99.90;;;;;;8413950;28;20016;-78
2022/10/01 23:08:07;;;;;;;;;;;14.50;99.90;;;;;;8428346;28;19924;-77
2022/10/01 23:12:09;;;;;;;;;;;14.50;99.90;;;;;;8446751;27;19920;-78
2022/10/01 23:16:14;;;;;;;;;;;14.40;99.90;;;;;;8434269;28;19934;-78
2022/10/01 23:20:28;;;;;;;;;;;14.30;99.90;;;;;;8413234;28;19928;-77
2022/10/01 23:24:30;;;;;;;;;;;14.30;99.90;;;;;;8441581;28;19962;-78
2022/10/01 23:28:31;;;;;;;;;;;14.20;99.90;;;;;;8427224;28;19928;-78
2022/10/01 23:32:33;;;;;;;;;;;14.10;99.90;;;;;;8408940;28;20422;-78
2022/10/01 23:36:37;;;;;;;;;;;14.10;99.90;;;;;;8410371;28;19924;-78
2022/10/01 23:40:40;;;;;;;;;;;13.90;99.90;;;;;;8424415;28;20256;-78
2022/10/01 23:44:48;;;;;;;;;;;13.80;99.90;;;;;;8456494;28;19926;-78
2022/10/01 23:48:58;;;;;;;;;;;13.80;99.90;;;;;;8425748;28;20323;-78
2022/10/01 23:53:20;;;;;;;;;;;13.80;99.90;;;;;;8403463;28;20382;-78
2022/10/01 23:57:30;;;;;;;;;;;13.80;99.90;;;;;;8434333;28;19950;-77
